Humboldt, TN (38343)

7:05 AM CDT on August 25, 2016 (GMT -0500)
| | Change Station

Elev -9999 ft 0.00 °N, 0.00 °E | Updated

Clear
Clear
82 °F
Feels Like 90 °F
N
4
Wind Variable Wind from SSW
Gusts mph

Today
High -- | Low -- °F
--% Chance of Precip.
Yesterday
High -- | Low -- °F
Precip. -- in
Pressure 30.12 in
Visibility 7.0 miles
Clouds Clear
Heat Index 90 °F
Dew Point 76 °F
Humidity 84%
Rainfall --
Snow Depth Not available.
6:22 AM 7:32 PM
Last Quarter, 46% visible
METAR KMKL 251153Z 00000KT 7SM CLR 23/23 A3013 RMK AO2 SLP197 T02280228 10250 20228 53008
Pressure 30.12 in
Visibility 7.0 miles
Clouds Clear
Heat Index 90 °F
Dew Point 76 °F
Humidity 84%
Rainfall --
Snow Depth Not available.
6:22 AM 7:32 PM
Last Quarter, 46% visible
METAR KMKL 251153Z 00000KT 7SM CLR 23/23 A3013 RMK AO2 SLP197 T02280228 10250 20228 53008

10-Day Weather Forecast

Almanac

Astronomy

Aug. 25, 2016 Rise Set
Actual Time
Civil Twilight
Nautical Twilight
Astronomical Twilight
Moon
Length of Visible Light
Length of Day
Tomorrow will be .
, % of the Moon is Illuminated

Today's Extremes

State Highs State Lows

Community

WunderPhotos

Upload Photos

1,934,823 photos uploaded!

WunderBlog® & News

Nearby

Air Quality

  Air Quality AQ Index Pollutant
Not available.

Snow Depth

Station Depth Elevation

Earthquake Activity

City Distance Mag. Time & Date
Minimum magnitude displayed is 2.5.

Coastal Water Temperatures

Place Temperature

Stations

Nearby Weather Stations

Station Location Temp. Windchill Dew Point Humidity Wind Precip. Elev Updated Type
                   

Watches & Warnings

There are currently no watches in effect.